sensor_id;sensor_type;location;lat;lon;timestamp;pressure;altitude;pressure_sealevel;temperature;humidity
21869;BME280;11099;41.564;23.296;2022-09-13T00:01:41;60703.47;;;-143.80;100.00
21869;BME280;11099;41.564;23.296;2022-09-13T00:04:06;60703.47;;;-143.80;100.00
21869;BME280;11099;41.564;23.296;2022-09-13T00:06:32;60703.47;;;-143.80;100.00
21869;BME280;11099;41.564;23.296;2022-09-13T00:08:57;60703.47;;;-143.80;100.00
21869;BME280;11099;41.564;23.296;2022-09-13T00:11:26;60703.47;;;-143.80;100.00
21869;BME280;11099;41.564;23.296;2022-09-13T00:13:52;60703.47;;;-143.80;100.00
21869;BME280;11099;41.564;23.296;2022-09-13T00:16:21;60703.47;;;-143.80;100.00
21869;BME280;11099;41.564;23.296;2022-09-13T00:18:46;60703.47;;;-143.80;100.00
21869;BME280;11099;41.564;23.296;2022-09-13T00:21:17;60703.47;;;-143.80;100.00
21869;BME280;11099;41.564;23.296;2022-09-13T00:23:51;60703.47;;;-143.80;100.00
21869;BME280;11099;41.564;23.296;2022-09-13T00:26:20;60703.47;;;-143.80;100.00
21869;BME280;11099;41.564;23.296;2022-09-13T00:28:49;60703.47;;;-143.80;100.00
21869;BME280;11099;41.564;23.296;2022-09-13T00:31:16;60703.47;;;-143.80;100.00
21869;BME280;11099;41.564;23.296;2022-09-13T00:33:42;60703.47;;;-143.80;100.00
21869;BME280;11099;41.564;23.296;2022-09-13T00:36:10;60703.47;;;-143.80;100.00
21869;BME280;11099;41.564;23.296;2022-09-13T00:38:37;60703.47;;;-143.80;100.00
21869;BME280;11099;41.564;23.296;2022-09-13T00:41:08;60703.47;;;-143.80;100.00
21869;BME280;11099;41.564;23.296;2022-09-13T00:43:46;60703.47;;;-143.80;100.00
21869;BME280;11099;41.564;23.296;2022-09-13T00:46:17;60703.47;;;-143.80;100.00
21869;BME280;11099;41.564;23.296;2022-09-13T00:48:45;60703.47;;;-143.80;100.00
21869;BME280;11099;41.564;23.296;2022-09-13T00:51:12;60703.47;;;-143.80;100.00
21869;BME280;11099;41.564;23.296;2022-09-13T00:53:41;60703.47;;;-143.80;100.00
21869;BME280;11099;41.564;23.296;2022-09-13T00:56:12;60703.47;;;-143.80;100.00
21869;BME280;11099;41.564;23.296;2022-09-13T00:58:46;60703.47;;;-143.80;100.00
21869;BME280;11099;41.564;23.296;2022-09-13T01:01:16;60703.47;;;-143.80;100.00
21869;BME280;11099;41.564;23.296;2022-09-13T01:03:44;60703.47;;;-143.80;100.00
21869;BME280;11099;41.564;23.296;2022-09-13T01:06:18;60703.47;;;-143.80;100.00
21869;BME280;11099;41.564;23.296;2022-09-13T01:08:48;60703.47;;;-143.80;100.00
21869;BME280;11099;41.564;23.296;2022-09-13T01:11:32;60703.47;;;-143.80;100.00
21869;BME280;11099;41.564;23.296;2022-09-13T01:14:00;60703.47;;;-143.80;100.00
21869;BME280;11099;41.564;23.296;2022-09-13T01:16:27;60703.47;;;-143.80;100.00
21869;BME280;11099;41.564;23.296;2022-09-13T01:18:53;60703.47;;;-143.80;100.00
21869;BME280;11099;41.564;23.296;2022-09-13T01:30:18;60703.47;;;-143.80;100.00
21869;BME280;11099;41.564;23.296;2022-09-13T01:50:26;60703.47;;;-143.80;100.00
21869;BME280;11099;41.564;23.296;2022-09-13T01:53:02;60703.47;;;-143.80;100.00
21869;BME280;11099;41.564;23.296;2022-09-13T01:55:36;60703.47;;;-143.80;100.00
21869;BME280;11099;41.564;23.296;2022-09-13T02:00:38;60703.47;;;-143.80;100.00
21869;BME280;11099;41.564;23.296;2022-09-13T02:03:13;60703.47;;;-143.80;100.00
21869;BME280;11099;41.564;23.296;2022-09-13T02:05:58;60703.47;;;-143.80;100.00
21869;BME280;11099;41.564;23.296;2022-09-13T02:08:35;60703.47;;;-143.80;100.00
21869;BME280;11099;41.564;23.296;2022-09-13T02:11:10;60703.47;;;-143.80;100.00
21869;BME280;11099;41.564;23.296;2022-09-13T02:13:42;60703.47;;;-143.80;100.00
21869;BME280;11099;41.564;23.296;2022-09-13T02:16:32;60703.47;;;-143.80;100.00
21869;BME280;11099;41.564;23.296;2022-09-13T02:19:03;60703.47;;;-143.80;100.00
21869;BME280;11099;41.564;23.296;2022-09-13T02:21:32;60703.47;;;-143.80;100.00
21869;BME280;11099;41.564;23.296;2022-09-13T02:24:10;60703.47;;;-143.80;100.00
21869;BME280;11099;41.564;23.296;2022-09-13T02:26:39;60703.47;;;-143.80;100.00
21869;BME280;11099;41.564;23.296;2022-09-13T02:29:12;60703.47;;;-143.80;100.00
21869;BME280;11099;41.564;23.296;2022-09-13T02:32:03;60703.47;;;-143.80;100.00
21869;BME280;11099;41.564;23.296;2022-09-13T02:34:38;60703.47;;;-143.80;100.00
21869;BME280;11099;41.564;23.296;2022-09-13T02:37:07;60703.47;;;-143.80;100.00
21869;BME280;11099;41.564;23.296;2022-09-13T02:39:37;60703.47;;;-143.80;100.00
21869;BME280;11099;41.564;23.296;2022-09-13T02:42:18;60703.47;;;-143.80;100.00
21869;BME280;11099;41.564;23.296;2022-09-13T02:44:49;60703.47;;;-143.80;100.00
21869;BME280;11099;41.564;23.296;2022-09-13T02:53:52;60703.47;;;-143.80;100.00
21869;BME280;11099;41.564;23.296;2022-09-13T02:58:45;60703.47;;;-143.80;100.00
21869;BME280;11099;41.564;23.296;2022-09-13T03:01:14;60703.47;;;-143.80;100.00
21869;BME280;11099;41.564;23.296;2022-09-13T03:03:40;60703.47;;;-143.80;100.00
21869;BME280;11099;41.564;23.296;2022-09-13T03:06:06;60703.47;;;-143.80;100.00
21869;BME280;11099;41.564;23.296;2022-09-13T03:08:32;60703.47;;;-143.80;100.00
21869;BME280;11099;41.564;23.296;2022-09-13T03:14:01;60703.47;;;-143.80;100.00
21869;BME280;11099;41.564;23.296;2022-09-13T03:16:42;60703.47;;;-143.80;100.00
21869;BME280;11099;41.564;23.296;2022-09-13T03:19:44;60703.47;;;-143.80;100.00
21869;BME280;11099;41.564;23.296;2022-09-13T03:22:30;60703.47;;;-143.80;100.00
21869;BME280;11099;41.564;23.296;2022-09-13T03:25:07;60703.47;;;-143.80;100.00
21869;BME280;11099;41.564;23.296;2022-09-13T03:27:41;60703.47;;;-143.80;100.00
21869;BME280;11099;41.564;23.296;2022-09-13T03:30:14;60703.47;;;-143.80;100.00
21869;BME280;11099;41.564;23.296;2022-09-13T03:35:56;60703.47;;;-143.80;100.00
21869;BME280;11099;41.564;23.296;2022-09-13T03:38:28;60703.47;;;-143.80;100.00
21869;BME280;11099;41.564;23.296;2022-09-13T03:41:09;60703.47;;;-143.80;100.00
21869;BME280;11099;41.564;23.296;2022-09-13T03:43:45;60703.47;;;-143.80;100.00
21869;BME280;11099;41.564;23.296;2022-09-13T03:46:34;60703.47;;;-143.80;100.00
21869;BME280;11099;41.564;23.296;2022-09-13T03:49:05;60703.47;;;-143.80;100.00
21869;BME280;11099;41.564;23.296;2022-09-13T03:51:32;60703.47;;;-143.80;100.00
21869;BME280;11099;41.564;23.296;2022-09-13T03:54:01;60703.47;;;-143.80;100.00
21869;BME280;11099;41.564;23.296;2022-09-13T03:56:28;60703.47;;;-143.80;100.00
21869;BME280;11099;41.564;23.296;2022-09-13T03:58:53;60703.47;;;-143.80;100.00
21869;BME280;11099;41.564;23.296;2022-09-13T04:01:21;60703.47;;;-143.80;100.00
21869;BME280;11099;41.564;23.296;2022-09-13T04:03:47;60703.47;;;-143.80;100.00
21869;BME280;11099;41.564;23.296;2022-09-13T04:06:13;60703.47;;;-143.80;100.00
21869;BME280;11099;41.564;23.296;2022-09-13T04:08:39;60703.47;;;-143.80;100.00
21869;BME280;11099;41.564;23.296;2022-09-13T04:11:05;60703.47;;;-143.80;100.00
21869;BME280;11099;41.564;23.296;2022-09-13T04:13:30;60703.47;;;-143.80;100.00
21869;BME280;11099;41.564;23.296;2022-09-13T04:16:00;60703.47;;;-143.80;100.00
21869;BME280;11099;41.564;23.296;2022-09-13T04:18:27;60703.47;;;-143.80;100.00
21869;BME280;11099;41.564;23.296;2022-09-13T04:20:54;60703.47;;;-143.80;100.00
21869;BME280;11099;41.564;23.296;2022-09-13T04:23:20;60703.47;;;-143.80;100.00
21869;BME280;11099;41.564;23.296;2022-09-13T04:25:46;60703.47;;;-143.80;100.00
21869;BME280;11099;41.564;23.296;2022-09-13T04:28:12;60703.47;;;-143.80;100.00
21869;BME280;11099;41.564;23.296;2022-09-13T04:30:37;60703.47;;;-143.80;100.00
21869;BME280;11099;41.564;23.296;2022-09-13T04:33:03;60703.47;;;-143.80;100.00
21869;BME280;11099;41.564;23.296;2022-09-13T04:35:28;60703.47;;;-143.80;100.00
21869;BME280;11099;41.564;23.296;2022-09-13T04:37:54;60703.47;;;-143.80;100.00
21869;BME280;11099;41.564;23.296;2022-09-13T04:40:21;60703.47;;;-143.80;100.00
21869;BME280;11099;41.564;23.296;2022-09-13T04:42:48;60703.47;;;-143.80;100.00
21869;BME280;11099;41.564;23.296;2022-09-13T04:45:13;60703.47;;;-143.80;100.00
21869;BME280;11099;41.564;23.296;2022-09-13T04:47:39;60703.47;;;-143.80;100.00
21869;BME280;11099;41.564;23.296;2022-09-13T04:50:05;60703.47;;;-143.80;100.00
21869;BME280;11099;41.564;23.296;2022-09-13T04:52:31;60703.47;;;-143.80;100.00
21869;BME280;11099;41.564;23.296;2022-09-13T04:54:57;60703.47;;;-143.80;100.00
21869;BME280;11099;41.564;23.296;2022-09-13T04:57:29;60703.47;;;-143.80;100.00
21869;BME280;11099;41.564;23.296;2022-09-13T04:59:54;60703.47;;;-143.80;100.00
21869;BME280;11099;41.564;23.296;2022-09-13T05:02:20;60703.47;;;-143.80;100.00
21869;BME280;11099;41.564;23.296;2022-09-13T05:04:45;60703.47;;;-143.80;100.00
21869;BME280;11099;41.564;23.296;2022-09-13T05:07:11;60703.47;;;-143.80;100.00
21869;BME280;11099;41.564;23.296;2022-09-13T05:09:37;60703.47;;;-143.80;100.00
21869;BME280;11099;41.564;23.296;2022-09-13T05:12:03;60703.47;;;-143.80;100.00
21869;BME280;11099;41.564;23.296;2022-09-13T05:14:28;60703.47;;;-143.80;100.00
21869;BME280;11099;41.564;23.296;2022-09-13T05:16:54;60703.47;;;-143.80;100.00
21869;BME280;11099;41.564;23.296;2022-09-13T05:19:20;60703.47;;;-143.80;100.00
21869;BME280;11099;41.564;23.296;2022-09-13T05:21:45;60703.47;;;-143.80;100.00
21869;BME280;11099;41.564;23.296;2022-09-13T05:24:11;60703.47;;;-143.80;100.00
21869;BME280;11099;41.564;23.296;2022-09-13T05:26:36;60703.47;;;-143.80;100.00
21869;BME280;11099;41.564;23.296;2022-09-13T05:29:03;60703.47;;;-143.80;100.00
21869;BME280;11099;41.564;23.296;2022-09-13T05:31:34;97288.06;;;20.03;nan
21869;BME280;11099;41.564;23.296;2022-09-13T05:34:03;97344.09;;;20.53;nan
21869;BME280;11099;41.564;23.296;2022-09-13T05:36:29;97369.41;;;20.79;nan
21869;BME280;11099;41.564;23.296;2022-09-13T05:38:55;97354.16;;;20.12;nan
21869;BME280;11099;41.564;23.296;2022-09-13T05:41:21;97225.56;;;20.63;nan
21869;BME280;11099;41.564;23.296;2022-09-13T05:43:47;97371.38;;;21.51;nan
21869;BME280;11099;41.564;23.296;2022-09-13T05:46:15;97316.78;;;21.35;nan
21869;BME280;11099;41.564;23.296;2022-09-13T05:48:41;97406.50;;;22.67;nan
21869;BME280;11099;41.564;23.296;2022-09-13T05:51:09;97362.59;;;21.87;nan
21869;BME280;11099;41.564;23.296;2022-09-13T05:53:37;97380.16;;;22.50;nan
21869;BME280;11099;41.564;23.296;2022-09-13T05:56:11;97376.59;;;22.14;nan
21869;BME280;11099;41.564;23.296;2022-09-13T05:58:38;97353.16;;;21.41;nan
21869;BME280;11099;41.564;23.296;2022-09-13T06:01:04;97378.75;;;21.58;nan
21869;BME280;11099;41.564;23.296;2022-09-13T06:03:30;97299.56;;;20.95;nan
21869;BME280;11099;41.564;23.296;2022-09-13T06:05:56;97373.25;;;21.37;nan
21869;BME280;11099;41.564;23.296;2022-09-13T06:08:27;97305.19;;;21.45;nan
21869;BME280;11099;41.564;23.296;2022-09-13T06:10:58;97372.75;;;22.29;nan
21869;BME280;11099;41.564;23.296;2022-09-13T06:13:25;97299.44;;;21.57;nan
21869;BME280;11099;41.564;23.296;2022-09-13T06:15:51;97268.81;;;21.36;nan
21869;BME280;11099;41.564;23.296;2022-09-13T06:18:17;97377.03;;;22.73;nan
21869;BME280;11099;41.564;23.296;2022-09-13T06:20:44;97325.44;;;21.91;nan
21869;BME280;11099;41.564;23.296;2022-09-13T06:23:09;97371.22;;;22.39;nan
21869;BME280;11099;41.564;23.296;2022-09-13T06:25:35;97394.44;;;23.25;nan
21869;BME280;11099;41.564;23.296;2022-09-13T06:28:02;97381.56;;;23.44;nan
21869;BME280;11099;41.564;23.296;2022-09-13T06:30:28;97336.28;;;23.12;nan
21869;BME280;11099;41.564;23.296;2022-09-13T06:32:57;97369.53;;;21.77;nan
21869;BME280;11099;41.564;23.296;2022-09-13T06:35:22;97343.28;;;22.06;nan
21869;BME280;11099;41.564;23.296;2022-09-13T06:37:48;97385.19;;;22.55;nan
21869;BME280;11099;41.564;23.296;2022-09-13T06:40:14;97394.88;;;22.45;nan
21869;BME280;11099;41.564;23.296;2022-09-13T06:42:41;97366.22;;;22.58;nan
21869;BME280;11099;41.564;23.296;2022-09-13T06:45:06;97328.22;;;22.12;nan
21869;BME280;11099;41.564;23.296;2022-09-13T06:47:32;97389.81;;;23.04;nan
21869;BME280;11099;41.564;23.296;2022-09-13T06:49:58;97330.91;;;22.62;nan
21869;BME280;11099;41.564;23.296;2022-09-13T06:52:25;97392.94;;;22.88;nan
21869;BME280;11099;41.564;23.296;2022-09-13T06:54:52;97346.81;;;22.67;nan
21869;BME280;11099;41.564;23.296;2022-09-13T06:57:18;97372.00;;;22.93;nan
21869;BME280;11099;41.564;23.296;2022-09-13T06:59:43;97356.47;;;22.82;nan
21869;BME280;11099;41.564;23.296;2022-09-13T07:02:09;97265.03;;;22.58;nan
21869;BME280;11099;41.564;23.296;2022-09-13T07:04:35;97361.91;;;22.47;nan
21869;BME280;11099;41.564;23.296;2022-09-13T07:07:01;97294.88;;;21.94;nan
21869;BME280;11099;41.564;23.296;2022-09-13T07:09:26;97391.00;;;22.93;nan
21869;BME280;11099;41.564;23.296;2022-09-13T07:11:53;97360.38;;;22.31;nan
21869;BME280;11099;41.564;23.296;2022-09-13T07:14:21;97368.47;;;23.10;nan
21869;BME280;11099;41.564;23.296;2022-09-13T07:16:48;97380.13;;;22.14;nan
21869;BME280;11099;41.564;23.296;2022-09-13T07:19:22;97335.88;;;21.85;nan
21869;BME280;11099;41.564;23.296;2022-09-13T07:21:49;97393.34;;;22.69;nan
21869;BME280;11099;41.564;23.296;2022-09-13T07:24:19;97330.06;;;21.79;nan
21869;BME280;11099;41.564;23.296;2022-09-13T07:26:45;97310.19;;;21.33;nan
21869;BME280;11099;41.564;23.296;2022-09-13T07:29:14;97365.72;;;21.05;nan
21869;BME280;11099;41.564;23.296;2022-09-13T07:31:50;97370.78;;;21.10;nan
21869;BME280;11099;41.564;23.296;2022-09-13T07:34:17;97384.25;;;21.79;nan
21869;BME280;11099;41.564;23.296;2022-09-13T07:36:44;97335.53;;;22.01;nan
21869;BME280;11099;41.564;23.296;2022-09-13T07:39:11;97302.31;;;21.06;nan
21869;BME280;11099;41.564;23.296;2022-09-13T07:41:37;97263.41;;;20.59;nan
21869;BME280;11099;41.564;23.296;2022-09-13T07:44:03;97345.84;;;21.49;nan
21869;BME280;11099;41.564;23.296;2022-09-13T07:46:31;97285.72;;;21.15;nan
21869;BME280;11099;41.564;23.296;2022-09-13T07:48:58;97310.44;;;21.06;nan
21869;BME280;11099;41.564;23.296;2022-09-13T07:51:29;97265.34;;;21.46;nan
21869;BME280;11099;41.564;23.296;2022-09-13T07:53:57;97290.97;;;21.73;nan
21869;BME280;11099;41.564;23.296;2022-09-13T07:56:27;97368.44;;;22.06;nan
21869;BME280;11099;41.564;23.296;2022-09-13T07:58:54;97325.06;;;21.89;nan
21869;BME280;11099;41.564;23.296;2022-09-13T08:01:25;97304.91;;;21.90;nan
21869;BME280;11099;41.564;23.296;2022-09-13T08:03:52;97353.78;;;22.15;nan
21869;BME280;11099;41.564;23.296;2022-09-13T08:06:19;97270.44;;;21.79;nan
21869;BME280;11099;41.564;23.296;2022-09-13T08:08:45;97346.00;;;22.06;nan
21869;BME280;11099;41.564;23.296;2022-09-13T08:11:17;97324.31;;;22.06;nan
21869;BME280;11099;41.564;23.296;2022-09-13T08:13:47;97310.81;;;22.20;nan
21869;BME280;11099;41.564;23.296;2022-09-13T08:16:14;97314.59;;;22.01;nan
21869;BME280;11099;41.564;23.296;2022-09-13T08:18:47;97301.06;;;22.05;nan
21869;BME280;11099;41.564;23.296;2022-09-13T08:21:13;97352.53;;;21.87;nan
21869;BME280;11099;41.564;23.296;2022-09-13T08:23:39;97303.03;;;22.15;nan
21869;BME280;11099;41.564;23.296;2022-09-13T08:26:05;97347.22;;;22.26;nan
21869;BME280;11099;41.564;23.296;2022-09-13T08:28:33;97356.88;;;22.52;nan
21869;BME280;11099;41.564;23.296;2022-09-13T08:31:10;97316.94;;;22.03;nan
21869;BME280;11099;41.564;23.296;2022-09-13T08:33:36;97327.47;;;22.37;nan
21869;BME280;11099;41.564;23.296;2022-09-13T08:36:03;97283.69;;;22.17;nan
21869;BME280;11099;41.564;23.296;2022-09-13T08:38:29;97346.41;;;22.69;nan
21869;BME280;11099;41.564;23.296;2022-09-13T08:41:01;97294.13;;;22.50;nan
21869;BME280;11099;41.564;23.296;2022-09-13T08:43:47;97341.78;;;22.51;nan
21869;BME280;11099;41.564;23.296;2022-09-13T08:46:25;97337.00;;;23.23;nan
21869;BME280;11099;41.564;23.296;2022-09-13T08:48:55;97337.44;;;23.07;nan
21869;BME280;11099;41.564;23.296;2022-09-13T08:54:00;97319.66;;;22.74;nan
21869;BME280;11099;41.564;23.296;2022-09-13T08:56:54;97332.66;;;23.47;nan
21869;BME280;11099;41.564;23.296;2022-09-13T09:05:02;97332.06;;;23.91;nan
21869;BME280;11099;41.564;23.296;2022-09-13T09:07:33;97350.25;;;23.14;nan
21869;BME280;11099;41.564;23.296;2022-09-13T09:10:19;97222.13;;;23.33;nan
21869;BME280;11099;41.564;23.296;2022-09-13T09:16:00;97269.34;;;23.64;nan
21869;BME280;11099;41.564;23.296;2022-09-13T09:18:32;97306.81;;;23.07;nan
21869;BME280;11099;41.564;23.296;2022-09-13T09:21:00;97263.22;;;23.43;nan
21869;BME280;11099;41.564;23.296;2022-09-13T09:26:17;97299.75;;;24.04;nan
21869;BME280;11099;41.564;23.296;2022-09-13T09:29:13;97294.69;;;23.33;nan
21869;BME280;11099;41.564;23.296;2022-09-13T09:37:24;97271.25;;;23.67;nan
21869;BME280;11099;41.564;23.296;2022-09-13T09:39:57;97249.66;;;24.02;nan
21869;BME280;11099;41.564;23.296;2022-09-13T09:42:28;97249.31;;;23.96;nan
21869;BME280;11099;41.564;23.296;2022-09-13T09:45:17;97292.88;;;24.34;nan
21869;BME280;11099;41.564;23.296;2022-09-13T09:47:46;97223.97;;;23.51;nan
21869;BME280;11099;41.564;23.296;2022-09-13T09:53:06;97301.47;;;24.36;nan
21869;BME280;11099;41.564;23.296;2022-09-13T09:55:50;97244.91;;;24.13;nan
21869;BME280;11099;41.564;23.296;2022-09-13T09:58:35;97186.38;;;23.98;nan
21869;BME280;11099;41.564;23.296;2022-09-13T10:01:02;97288.81;;;24.60;nan
21869;BME280;11099;41.564;23.296;2022-09-13T10:03:31;97246.97;;;24.47;nan
21869;BME280;11099;41.564;23.296;2022-09-13T10:06:07;97286.09;;;24.60;nan
21869;BME280;11099;41.564;23.296;2022-09-13T10:08:36;97293.72;;;24.76;nan
21869;BME280;11099;41.564;23.296;2022-09-13T10:11:05;97274.09;;;24.54;nan
21869;BME280;11099;41.564;23.296;2022-09-13T10:13:31;97239.47;;;24.58;nan
21869;BME280;11099;41.564;23.296;2022-09-13T10:16:05;97274.13;;;24.50;nan
21869;BME280;11099;41.564;23.296;2022-09-13T10:18:35;97298.34;;;24.37;nan
21869;BME280;11099;41.564;23.296;2022-09-13T10:21:22;97236.22;;;24.70;nan
21869;BME280;11099;41.564;23.296;2022-09-13T10:23:50;97229.97;;;24.73;nan
21869;BME280;11099;41.564;23.296;2022-09-13T10:26:23;97205.25;;;24.57;nan
21869;BME280;11099;41.564;23.296;2022-09-13T10:28:59;97290.31;;;25.36;nan
21869;BME280;11099;41.564;23.296;2022-09-13T10:31:36;97236.25;;;25.35;nan
21869;BME280;11099;41.564;23.296;2022-09-13T10:36:37;97219.13;;;25.34;nan
21869;BME280;11099;41.564;23.296;2022-09-13T10:39:18;97288.06;;;26.16;nan
21869;BME280;11099;41.564;23.296;2022-09-13T10:41:53;97296.91;;;25.96;nan
21869;BME280;11099;41.564;23.296;2022-09-13T10:44:45;97229.66;;;25.59;nan
21869;BME280;11099;41.564;23.296;2022-09-13T10:47:23;97264.38;;;25.55;nan
21869;BME280;11099;41.564;23.296;2022-09-13T10:49:53;97268.88;;;25.65;nan
21869;BME280;11099;41.564;23.296;2022-09-13T10:52:34;97215.16;;;25.93;nan
21869;BME280;11099;41.564;23.296;2022-09-13T10:57:45;97286.47;;;25.91;nan
21869;BME280;11099;41.564;23.296;2022-09-13T11:00:14;97262.91;;;26.05;nan
21869;BME280;11099;41.564;23.296;2022-09-13T11:05:40;97275.84;;;26.47;nan
21869;BME280;11099;41.564;23.296;2022-09-13T11:08:20;97280.53;;;25.69;nan
21869;BME280;11099;41.564;23.296;2022-09-13T11:11:05;97268.16;;;25.34;nan
21869;BME280;11099;41.564;23.296;2022-09-13T11:16:18;97268.13;;;25.65;nan
21869;BME280;11099;41.564;23.296;2022-09-13T11:24:43;97253.91;;;26.04;nan
21869;BME280;11099;41.564;23.296;2022-09-13T11:27:40;97261.50;;;26.43;nan
21869;BME280;11099;41.564;23.296;2022-09-13T11:30:20;97253.31;;;26.87;nan
21869;BME280;11099;41.564;23.296;2022-09-13T11:35:23;97248.03;;;26.76;nan
21869;BME280;11099;41.564;23.296;2022-09-13T11:40:38;97186.69;;;26.17;nan
21869;BME280;11099;41.564;23.296;2022-09-13T11:46:37;97236.59;;;26.81;nan
21869;BME280;11099;41.564;23.296;2022-09-13T11:57:32;97237.59;;;26.71;nan
21869;BME280;11099;41.564;23.296;2022-09-13T12:00:54;97226.81;;;26.40;nan
21869;BME280;11099;41.564;23.296;2022-09-13T12:05:44;97224.94;;;26.61;nan
21869;BME280;11099;41.564;23.296;2022-09-13T12:08:25;97151.13;;;26.44;nan
21869;BME280;11099;41.564;23.296;2022-09-13T12:10:58;97130.25;;;25.91;nan
21869;BME280;11099;41.564;23.296;2022-09-13T12:13:28;97181.59;;;26.63;nan
21869;BME280;11099;41.564;23.296;2022-09-13T12:16:06;97216.66;;;26.64;nan
21869;BME280;11099;41.564;23.296;2022-09-13T12:18:48;97209.09;;;27.12;nan
21869;BME280;11099;41.564;23.296;2022-09-13T12:21:22;97217.50;;;26.81;nan
21869;BME280;11099;41.564;23.296;2022-09-13T12:24:24;97214.19;;;26.70;nan
21869;BME280;11099;41.564;23.296;2022-09-13T12:27:03;97173.44;;;26.39;nan
21869;BME280;11099;41.564;23.296;2022-09-13T12:29:46;97221.53;;;26.53;nan
21869;BME280;11099;41.564;23.296;2022-09-13T12:32:15;97090.19;;;26.51;nan
21869;BME280;11099;41.564;23.296;2022-09-13T12:34:47;97115.47;;;26.32;nan
21869;BME280;11099;41.564;23.296;2022-09-13T12:51:46;97201.31;;;26.50;nan
21869;BME280;11099;41.564;23.296;2022-09-13T12:54:22;97191.31;;;26.64;nan
21869;BME280;11099;41.564;23.296;2022-09-13T12:57:14;97147.22;;;26.45;nan
21869;BME280;11099;41.564;23.296;2022-09-13T13:05:37;97125.22;;;26.33;nan
21869;BME280;11099;41.564;23.296;2022-09-13T13:11:02;97158.22;;;26.62;nan
21869;BME280;11099;41.564;23.296;2022-09-13T13:13:37;97191.69;;;26.66;nan
21869;BME280;11099;41.564;23.296;2022-09-13T13:19:30;97198.28;;;27.24;nan
21869;BME280;11099;41.564;23.296;2022-09-13T13:25:33;97174.38;;;26.52;nan
21869;BME280;11099;41.564;23.296;2022-09-13T13:28:02;97133.41;;;26.33;nan
21869;BME280;11099;41.564;23.296;2022-09-13T13:33:20;97195.84;;;26.90;nan
21869;BME280;11099;41.564;23.296;2022-09-13T13:35:46;97154.31;;;26.39;nan
21869;BME280;11099;41.564;23.296;2022-09-13T13:38:33;97129.81;;;26.16;nan
21869;BME280;11099;41.564;23.296;2022-09-13T13:43:59;97124.41;;;25.42;nan
21869;BME280;11099;41.564;23.296;2022-09-13T13:46:28;97215.22;;;25.89;nan
21869;BME280;11099;41.564;23.296;2022-09-13T13:48:55;97087.97;;;25.32;nan
21869;BME280;11099;41.564;23.296;2022-09-13T13:51:26;97116.78;;;25.33;nan
21869;BME280;11099;41.564;23.296;2022-09-13T13:53:59;97191.28;;;26.20;nan
21869;BME280;11099;41.564;23.296;2022-09-13T13:56:33;97174.13;;;26.00;nan
21869;BME280;11099;41.564;23.296;2022-09-13T13:59:08;97174.06;;;26.04;nan
21869;BME280;11099;41.564;23.296;2022-09-13T14:01:44;97112.34;;;25.66;nan
21869;BME280;11099;41.564;23.296;2022-09-13T14:07:12;97190.63;;;26.16;nan
21869;BME280;11099;41.564;23.296;2022-09-13T14:09:52;97123.19;;;25.70;nan
21869;BME280;11099;41.564;23.296;2022-09-13T14:12:36;97181.75;;;26.09;nan
21869;BME280;11099;41.564;23.296;2022-09-13T14:15:16;97192.84;;;26.21;nan
21869;BME280;11099;41.564;23.296;2022-09-13T14:23:40;97183.13;;;26.20;nan
21869;BME280;11099;41.564;23.296;2022-09-13T14:26:05;97147.41;;;25.64;nan
21869;BME280;11099;41.564;23.296;2022-09-13T14:28:31;97205.97;;;26.07;nan
21869;BME280;11099;41.564;23.296;2022-09-13T14:30:58;97120.75;;;25.29;nan
21869;BME280;11099;41.564;23.296;2022-09-13T14:33:33;97193.09;;;26.07;nan
21869;BME280;11099;41.564;23.296;2022-09-13T14:38:29;97189.97;;;25.85;nan
21869;BME280;11099;41.564;23.296;2022-09-13T14:41:20;97204.31;;;25.89;nan
21869;BME280;11099;41.564;23.296;2022-09-13T14:43:47;97200.34;;;25.67;nan
21869;BME280;11099;41.564;23.296;2022-09-13T14:46:27;97156.44;;;25.07;nan
21869;BME280;11099;41.564;23.296;2022-09-13T14:49:05;97203.59;;;25.58;nan
21869;BME280;11099;41.564;23.296;2022-09-13T14:51:45;97191.09;;;25.61;nan
21869;BME280;11099;41.564;23.296;2022-09-13T14:54:28;97159.34;;;25.51;nan
21869;BME280;11099;41.564;23.296;2022-09-13T14:56:57;97180.84;;;25.14;nan
21869;BME280;11099;41.564;23.296;2022-09-13T14:59:31;97193.69;;;25.44;nan
21869;BME280;11099;41.564;23.296;2022-09-13T15:02:05;97170.63;;;25.49;nan
21869;BME280;11099;41.564;23.296;2022-09-13T15:04:32;97192.44;;;25.76;nan
21869;BME280;11099;41.564;23.296;2022-09-13T15:09:56;97186.13;;;25.56;nan
21869;BME280;11099;41.564;23.296;2022-09-13T15:12:25;97158.41;;;25.03;nan
21869;BME280;11099;41.564;23.296;2022-09-13T15:15:31;97193.09;;;25.57;nan
21869;BME280;11099;41.564;23.296;2022-09-13T15:20:52;97195.06;;;25.29;nan
21869;BME280;11099;41.564;23.296;2022-09-13T15:23:25;97172.28;;;25.16;nan
21869;BME280;11099;41.564;23.296;2022-09-13T15:28:44;97193.41;;;25.35;nan
21869;BME280;11099;41.564;23.296;2022-09-13T15:31:24;97168.00;;;24.84;nan
21869;BME280;11099;41.564;23.296;2022-09-13T15:34:10;97190.53;;;25.19;nan
21869;BME280;11099;41.564;23.296;2022-09-13T15:36:36;97154.88;;;24.76;nan
21869;BME280;11099;41.564;23.296;2022-09-13T15:41:43;97194.81;;;24.86;nan
21869;BME280;11099;41.564;23.296;2022-09-13T15:44:15;97209.81;;;24.67;nan
21869;BME280;11099;41.564;23.296;2022-09-13T15:46:47;97208.44;;;24.86;nan
21869;BME280;11099;41.564;23.296;2022-09-13T15:49:18;97167.81;;;24.68;nan
21869;BME280;11099;41.564;23.296;2022-09-13T15:51:45;97139.28;;;24.08;nan
21869;BME280;11099;41.564;23.296;2022-09-13T15:54:13;97205.06;;;24.33;nan
21869;BME280;11099;41.564;23.296;2022-09-13T15:56:42;97206.06;;;24.54;nan